Terminal Aerodrome Forecast
Issued by NWS Jackson, MS

Home | Current Version | Previous Version | Text Only | Print | Product List | Glossary On
Versions: 1 2 3 4 5 6 7 8 9 10 11 12 13 14
000
FTUS44 KJAN 041746 RRA
TAFGWO
TAF
KGWO 041746Z 0418/0518 VRB05KT P6SM SCT050
     FM051100 VRB03KT 6SM BR HZ SKC
     FM051330 VRB04KT P6SM SCT040=

USA.gov is the U.S. government's official web portal to all federal, state and local government web resources and services.